This is the latest recevied weather packets stored in our database for station/object N8RJC-13. If no packets are shown the sender has not sent any weather packets the latest 1 day(s).
| Time | Temp. | Humidity | Pressure | Rain* | Wind** | Luminosity | Snow |
|---|---|---|---|---|---|---|---|
| 1778086041 | 14.44° C | 59% | 989.9 hPa | 0 mm | 0.89 m/s, 339° | - | - |
| 1778085801 | 15° C | 59% | 990.2 hPa | 0 mm | 1.34 m/s, 325° | - | - |
| 1778085741 | 15° C | 59% | 990.2 hPa | 0 mm | 1.34 m/s, 325° | - | - |
| 1778085681 | 15° C | 59% | 990.2 hPa | 0 mm | 1.34 m/s, 325° | - | - |
| 1778085621 | 14.44° C | 60% | 989.8 hPa | 0 mm | 0.45 m/s, 292° | - | - |
| 1778085561 | 14.44° C | 60% | 989.8 hPa | 0 mm | 0.45 m/s, 292° | - | - |
| 1778085501 | 14.44° C | 60% | 989.8 hPa | 0 mm | 0.45 m/s, 292° | - | - |
| 1778085441 | 14.44° C | 60% | 989.8 hPa | 0 mm | 0.45 m/s, 292° | - | - |
| 1778085381 | 14.44° C | 60% | 989.8 hPa | 0 mm | 0.45 m/s, 292° | - | - |
| 1778085261 | 13.89° C | 64% | 990.1 hPa | 0 mm | 0 m/s | - | - |
| 1778085201 | 13.89° C | 64% | 990.1 hPa | 0 mm | 0 m/s | - | - |
| 1778085141 | 13.89° C | 64% | 990.1 hPa | 0 mm | 0 m/s | - | - |
| 1778084841 | 13.33° C | 64% | 989.7 hPa | 0 mm | 0.89 m/s, 296° | - | - |
| 1778084721 | 13.33° C | 58% | 990 hPa | 0 mm | 0.89 m/s, 340° | - | - |
| 1778084661 | 13.33° C | 58% | 990 hPa | 0 mm | 0.89 m/s, 340° | - | - |
| 1778084601 | 13.33° C | 58% | 990 hPa | 0 mm | 0.89 m/s, 340° | - | - |
| 1778084541 | 13.33° C | 58% | 990 hPa | 0 mm | 0.89 m/s, 340° | - | - |
| 1778084481 | 13.33° C | 58% | 990 hPa | 0 mm | 0.89 m/s, 340° | - | - |
| 1778084361 | 13.33° C | 61% | 989.9 hPa | 0 mm | 0.89 m/s, 32° | - | - |
| 1778084241 | 13.33° C | 61% | 989.9 hPa | 0 mm | 0.89 m/s, 32° | - | - |
| 1778084121 | 13.89° C | 63% | 989.9 hPa | 0 mm | 0.89 m/s, 347° | - | - |
| 1778084061 | 13.89° C | 63% | 989.9 hPa | 0 mm | 0.89 m/s, 347° | - | - |
| 1778083941 | 13.89° C | 63% | 989.9 hPa | 0 mm | 0.89 m/s, 347° | - | - |
| 1778083821 | 13.89° C | 63% | 990 hPa | 0 mm | 1.34 m/s, 335° | - | - |
| 1778083761 | 13.89° C | 63% | 990 hPa | 0 mm | 1.34 m/s, 335° | - | - |
* Rain latest hour (hover to see other rain measurements)
** Current wind speed in m/s (hover to see current wind gust speed)